New Harbor, ME

43° 52' 34"N, 69° 29' 40"W, Elevation 65 ft.
Eastern Time

Hourly observations for the last 72 hours

Date Time Temperature (°F) Humi-
dity

(%)
Wind
(mph)
Pressure Rain (in) Sun
(W/m2)
ET
(in)
Air Dew 6 Hour 1 Hr 3 Hr 6 Hr Day
Alt
(in)
Sea
Level

(mb)
Max Min
20 06:00 40.8 34.2 77 SW 4 G 16 29.89 1012.1 0.00 0 0.005
20 05:00 40.9 34.6 78 SW 5 G 12 29.85 1010.8 0.00 0 0.004
20 04:00 41.4 34.1 75 SW 6 G 14 29.85 1010.9 0.00 0 0.003
20 03:00 42.0 35.3 77 SW 4 G 12 29.86 1011.2 0.00 0 0.002
20 02:00 42.1 35.7 78 SW 6 G 12 29.86 1011.1 0.00 0 0.001
20 01:00 41.6 35.6 41.6 30.8 79 SW 7 G 14 29.84 1010.5 0.00 0 0.000
20 00:00 38.7 34.9 86 SW 5 G 14 29.83 1010.2 0.00 0 0.021
19 23:00 31.2 26.3 82 NNW 1 G 4 29.85 1010.8 0.00 0 0.021
19 22:00 30.9 25.8 81 Calm 29.85 1010.9 0.00 0 0.021
19 21:00 31.2 25.5 79 NNW 1 G 3 29.85 1010.9 0.00 0 0.021
19 20:00 32.1 25.7 77 NNW 1 G 4 29.85 1011.0 0.00 0 0.020
19 19:00 34.8 27.7 41.8 34.8 75 NNW 2 G 4 29.85 1010.9 0.00 0 0.019
19 18:00 39.3 31.0 72 NNW 2 G 6 29.84 1010.5 0.00 0 0.018
19 17:00 41.5 33.8 74 SW 3 G 13 29.83 1010.4 0.00 0 0.017
19 16:00 41.7 34.0 74 SW 9 G 16 29.83 1010.3 0.00 32 0.015
19 15:00 40.7 33.7 76 SW 9 G 19 29.84 1010.6 0.00 28 0.013
19 14:00 39.3 33.0 78 SSW 11 G 28 29.85 1010.8 0.00 33 0.011
19 13:00 38.0 31.1 38.0 10.1 76 SSW 10 G 30 29.89 1012.1 0.00 146 0.008
19 12:00 33.1 29.1 85 SSW 10 G 23 29.94 1014.1 0.00 155 0.006
19 11:00 29.0 23.9 81 SSW 8 G 16 30.03 1016.9 0.00 46 0.004
19 10:00 20.7 14.6 77 S 6 G 10 30.07 1018.3 0.00 114 0.003
19 09:00 15.2 7.5 71 WNW 2 G 4 30.10 1019.3 0.00 104 0.002
19 08:00 11.8 3.3 68 WNW 0 G 2 30.12 1019.9 0.00 25 0.002
19 07:00 10.1 1.6 10.1 8.5 68 WNW 0 G 2 30.13 1020.2 0.00 0 0.002
19 06:00 8.8 0.1 67 WNW 0 G 2 30.12 1020.1 0.00 0 0.002
19 05:00 9.2 -0.5 64 WNW 1 G 5 30.13 1020.4 0.00 0 0.002
19 04:00 9.1 0.0 66 WNW 0 G 3 30.13 1020.5 0.00 0 0.002
19 03:00 8.8 -1.2 63 NW 1 G 10 30.12 1020.0 0.00 0 0.002
19 02:00 8.6 -2.5 60 SW 3 G 9 30.09 1019.1 0.00 0 0.001
19 01:00 8.7 -2.0 14.1 8.7 61 W 4 G 9 30.07 1018.3 0.00 0 0.000
19 00:00 9.0 -2.8 58 WSW 4 G 12 30.06 1018.0 0.00 0 0.044
18 23:00 9.3 -2.9 57 NW 6 G 17 30.02 1016.5 0.00 0 0.043
18 22:00 10.1 -2.1 57 NW 7 G 14 29.95 1014.4 0.00 0 0.042
18 21:00 11.0 -2.0 55 NW 4 G 20 29.94 1014.0 0.00 0 0.041
18 20:00 12.3 -1.6 53 NW 9 G 24 29.92 1013.3 0.00 0 0.040
18 19:00 14.1 0.5 26.1 14.1 54 WNW 12 G 20 29.87 1011.6 0.00 0 0.039
18 18:00 16.1 2.0 53 WNW 7 G 25 29.80 1009.3 0.00 0 0.037
18 17:00 19.0 2.1 47 W 15 G 29 29.73 1006.8 0.00 0 0.035
18 16:00 22.5 7.1 51 WNW 9 G 21 29.68 1005.1 0.00 14 0.033
18 15:00 23.7 8.2 51 W 10 G 22 29.63 1003.3 0.00 53 0.030
18 14:00 25.0 11.1 55 WNW 11 G 21 29.58 1001.6 0.00 90 0.026
18 13:00 26.1 10.9 27.8 24.2 52 WNW 12 G 20 29.53 1000.2 0.00 167 0.020
18 12:00 27.3 13.7 56 NW 9 G 25 29.50 998.8 0.00 411 0.014
18 11:00 26.2 12.6 56 WNW 7 G 21 29.47 998.1 0.00 401 0.010
18 10:00 25.1 14.6 64 WNW 8 G 18 29.45 997.5 0.00 35 0.009
18 09:00 24.5 14.1 64 NW 7 G 18 29.41 995.8 0.00 32 0.008
18 08:00 24.4 14.3 65 NW 6 G 23 29.36 994.4 0.00 16 0.007
18 07:00 26.8 17.3 37.9 26.8 67 WNW 10 G 19 29.32 992.8 0.00 0 0.006
18 06:00 28.7 19.5 68 NW 7 G 20 29.26 990.9 0.00 0 0.005
18 05:00 31.2 22.6 70 NNW 9 G 23 29.18 988.0 0.00 0 0.004
18 04:00 33.0 25.9 75 WNW 6 G 21 29.14 986.8 0.00 0 0.003
18 03:00 36.3 31.6 83 WNW 5 G 11 29.10 985.6 0.00 0 0.002
18 02:00 37.3 32.6 83 WSW 5 G 12 29.08 984.8 0.00 0 0.001
18 01:00 37.9 33.2 42.0 37.8 83 SW 6 G 18 29.06 984.2 0.00 0 0.000
18 00:00 38.0 33.6 84 SSW 7 G 15 29.05 983.7 0.83 0 0.024
17 23:00 38.6 33.6 82 SW 9 G 14 29.06 984.1 0.83 0 0.023
17 22:00 39.2 33.9 81 SW 6 G 16 29.05 983.9 0.83 0 0.022
17 21:00 39.4 34.7 83 SW 10 G 20 29.06 984.0 0.83 0 0.021
17 20:00 39.6 35.2 84 SW 7 G 19 29.05 983.7 0.83 0 0.020
17 19:00 42.0 36.3 48.4 41.8 80 SSW 6 G 16 29.04 983.5 0.05 0.83 0 0.019
17 18:00 42.3 36.3 79 SSW 8 G 18 29.03 983.1 0.83 0 0.018
17 17:00 42.4 37.9 84 SSW 8 G 24 29.03 983.0 0.83 0 0.017
17 16:00 43.1 39.8 88 S 8 G 21 29.01 982.4 0.05 0.83 18 0.016
17 15:00 45.7 43.8 93 SSW 7 G 14 28.99 981.8 0.83 65 0.014
17 14:00 47.7 46.1 94 SSE 10 G 21 28.98 981.3 0.05 0.83 104 0.013
17 13:00 45.8 44.2 45.8 37.0 94 SE 14 G 21 29.01 982.3 0.16 0.43 0.77 0.78 72 0.012
17 12:00 44.2 42.3 93 ESE 15 G 20 29.09 985.1 0.11 0.62 32 0.011
17 11:00 41.9 40.0 93 ESE 12 G 20 29.21 989.2 0.16 0.51 32 0.010
17 10:00 39.1 36.7 91 E 13 G 26 29.34 993.7 0.14 0.34 0.35 5 0.009
17 09:00 38.3 35.6 90 E 10 G 24 29.52 999.8 0.16 0.21 5 0.008
17 08:00 38.3 35.3 89 E 11 G 17 29.63 1003.5 0.04 0.05 0 0.007
17 07:00 37.0 33.8 37.3 33.0 88 ESE 9 G 14 29.73 1006.7 0.01 0.01 0.01 0.01 0 0.006

Data generated by WxSolution Version 1.9.1.8, Build 2020.02.16.